Time;durP1;ratioP1;P1;durP2;ratioP2;P2;SDS_P1;SDS_P2;PMS_P1;PMS_P2;Temp;Humidity;BMP_temperature;BMP_pressure;BME280_temperature;BME280_humidity;BME280_pressure;Samples;Min_cycle;Max_cycle;Signal;HPM_P1;HPM_P2
2021/05/27 00:00:36;;;;;;;7.95;5.30;;;10.40;99.90;;;;;;5035478;28;20249;-78
2021/05/27 00:03:04;;;;;;;4.75;4.30;;;10.50;99.90;;;;;;5034975;28;20223;-77
2021/05/27 00:05:31;;;;;;;4.60;4.30;;;10.40;99.90;;;;;;5041670;28;20253;-77
2021/05/27 00:07:58;;;;;;;5.30;4.70;;;10.40;99.90;;;;;;5073400;28;20220;-77
2021/05/27 00:10:27;;;;;;;4.18;3.83;;;10.40;99.90;;;;;;5055177;28;20202;-77
2021/05/27 00:12:54;;;;;;;4.18;3.80;;;10.40;99.90;;;;;;5073978;28;20194;-77
2021/05/27 00:15:23;;;;;;;5.07;4.40;;;10.40;99.90;;;;;;5055617;28;20214;-77
2021/05/27 00:17:50;;;;;;;4.13;3.80;;;10.40;99.90;;;;;;5072192;28;20206;-77
2021/05/27 00:20:17;;;;;;;3.75;3.45;;;10.40;99.90;;;;;;5074242;28;20588;-77
2021/05/27 00:22:44;;;;;;;5.10;4.60;;;10.40;99.90;;;;;;5074349;28;20305;-77
2021/05/27 00:25:13;;;;;;;3.70;3.40;;;10.40;99.90;;;;;;5056984;28;20275;-77
2021/05/27 00:27:40;;;;;;;4.80;4.40;;;10.40;99.90;;;;;;5074327;28;20226;-77
2021/05/27 00:30:09;;;;;;;4.47;4.13;;;10.40;99.90;;;;;;5073296;28;20204;-76
2021/05/27 00:32:36;;;;;;;4.68;4.28;;;10.40;99.90;;;;;;5072365;28;20248;-77
2021/05/27 00:35:03;;;;;;;3.40;3.20;;;10.40;99.90;;;;;;5072416;28;20223;-77
2021/05/27 00:37:30;;;;;;;3.30;3.00;;;10.40;99.90;;;;;;5054001;28;20809;-77
2021/05/27 00:39:57;;;;;;;4.07;3.78;;;10.30;99.90;;;;;;5070310;28;20202;-77
2021/05/27 00:42:24;;;;;;;3.72;3.30;;;10.40;99.90;;;;;;5054100;28;20285;-77
2021/05/27 00:45:05;;;;;;;3.65;3.45;;;10.40;99.90;;;;;;5054129;28;20219;-77
2021/05/27 00:47:32;;;;;;;4.10;3.75;;;10.50;99.90;;;;;;5072198;28;20515;-77
2021/05/27 00:49:59;;;;;;;5.53;3.88;;;10.30;99.90;;;;;;5072373;28;20224;-77
2021/05/27 00:52:26;;;;;;;4.35;3.95;;;10.30;99.90;;;;;;5071724;28;20187;-76
2021/05/27 00:54:58;;;;;;;4.28;3.35;;;10.30;99.90;;;;;;5054069;28;20253;-77
2021/05/27 00:57:33;;;;;;;3.38;3.10;;;10.40;99.90;;;;;;5050602;28;20207;-76
2021/05/27 01:00:03;;;;;;;2.75;2.55;;;10.40;99.90;;;;;;5037898;28;20198;-76
2021/05/27 01:02:33;;;;;;;2.90;2.70;;;10.40;99.90;;;;;;5038004;28;20229;-76
2021/05/27 01:05:01;;;;;;;3.05;2.83;;;10.50;99.90;;;;;;5059952;28;20223;-77
2021/05/27 01:07:29;;;;;;;3.28;2.80;;;10.40;99.90;;;;;;5050611;28;20199;-77
2021/05/27 01:09:56;;;;;;;2.38;2.17;;;10.40;99.90;;;;;;5050339;28;20224;-77
2021/05/27 01:12:22;;;;;;;3.05;2.70;;;10.40;99.90;;;;;;5051774;28;20218;-76
2021/05/27 01:17:37;;;;;;;3.47;3.15;;;10.40;99.90;;;;;;5034705;28;20336;-77
2021/05/27 01:20:05;;;;;;;2.47;2.35;;;10.50;99.90;;;;;;5051732;28;20195;-77
2021/05/27 01:22:33;;;;;;;3.63;2.63;;;10.50;99.90;;;;;;5052387;28;20242;-77
2021/05/27 01:25:00;;;;;;;3.03;2.83;;;10.50;99.90;;;;;;5017940;28;20233;-76
2021/05/27 01:27:27;;;;;;;2.78;2.53;;;10.40;99.90;;;;;;5035593;28;20645;-77
2021/05/27 01:29:54;;;;;;;2.92;2.63;;;10.50;99.90;;;;;;5034027;28;20256;-77
2021/05/27 01:32:22;;;;;;;4.72;4.28;;;10.40;99.90;;;;;;5034036;28;20195;-77
2021/05/27 01:34:50;;;;;;;3.00;2.78;;;10.50;99.90;;;;;;5033793;28;20297;-77
2021/05/27 01:37:20;;;;;;;4.30;3.72;;;10.50;99.90;;;;;;5033920;28;20208;-77
2021/05/27 01:39:50;;;;;;;3.78;3.47;;;10.60;99.90;;;;;;5034235;28;20230;-77
2021/05/27 01:42:16;;;;;;;3.55;3.30;;;10.50;99.90;;;;;;5034751;28;20234;-77
2021/05/27 01:44:44;;;;;;;3.60;3.30;;;10.50;99.90;;;;;;5043137;28;20226;-77
2021/05/27 01:47:11;;;;;;;3.80;3.53;;;10.40;99.90;;;;;;5054709;28;20199;-78
2021/05/27 01:49:39;;;;;;;3.30;3.00;;;10.30;99.90;;;;;;5055078;28;20229;-77
2021/05/27 01:52:08;;;;;;;3.25;3.05;;;10.30;99.90;;;;;;5054919;28;20202;-77
2021/05/27 01:54:37;;;;;;;3.50;2.70;;;10.30;99.90;;;;;;5055429;28;20214;-78
2021/05/27 01:57:06;;;;;;;2.30;2.20;;;10.40;99.90;;;;;;5055585;28;20535;-78
2021/05/27 01:59:33;;;;;;;3.13;2.92;;;10.40;99.90;;;;;;5054509;28;20210;-77
2021/05/27 02:02:00;;;;;;;3.85;3.53;;;10.40;99.90;;;;;;5038516;28;20262;-77
2021/05/27 02:04:27;;;;;;;4.15;2.90;;;10.50;99.90;;;;;;5047547;28;20195;-77
2021/05/27 02:06:54;;;;;;;2.60;2.40;;;10.50;99.90;;;;;;5038751;28;20205;-76
2021/05/27 02:09:21;;;;;;;2.75;2.55;;;10.60;99.90;;;;;;5055591;28;20206;-76
2021/05/27 02:11:52;;;;;;;4.50;3.13;;;10.50;99.90;;;;;;5021449;28;20199;-76
2021/05/27 02:14:21;;;;;;;4.05;3.75;;;10.50;99.90;;;;;;5055115;28;20213;-77
2021/05/27 02:16:47;;;;;;;6.30;3.65;;;10.40;99.90;;;;;;5064638;28;20213;-77
2021/05/27 02:19:14;;;;;;;4.80;3.65;;;10.40;99.90;;;;;;5074993;28;20244;-77
2021/05/27 02:21:44;;;;;;;4.18;3.03;;;10.40;99.90;;;;;;5058521;28;20597;-77
2021/05/27 02:24:34;;;;;;;4.85;4.45;;;10.40;99.90;;;;;;5038044;28;20213;-77
2021/05/27 02:27:01;;;;;;;3.88;3.58;;;10.40;99.90;;;;;;5057970;28;20193;-78
2021/05/27 02:29:30;;;;;;;3.90;3.45;;;10.40;99.90;;;;;;5075056;28;20222;-77
2021/05/27 02:32:01;;;;;;;3.97;3.60;;;10.40;99.90;;;;;;5059751;28;20194;-77
2021/05/27 02:34:28;;;;;;;3.70;3.40;;;10.30;99.90;;;;;;5058496;28;20208;-77
2021/05/27 02:36:57;;;;;;;4.25;3.70;;;10.30;99.90;;;;;;5076269;28;20274;-77
2021/05/27 02:39:24;;;;;;;4.47;3.25;;;10.50;99.90;;;;;;5076873;28;20224;-77
2021/05/27 02:41:54;;;;;;;4.45;3.90;;;10.50;99.90;;;;;;5076208;28;20244;-77
2021/05/27 02:44:26;;;;;;;3.78;3.47;;;10.50;99.90;;;;;;5075557;28;20730;-77
2021/05/27 02:46:54;;;;;;;4.07;3.45;;;10.50;99.90;;;;;;5075243;28;20201;-77
2021/05/27 02:49:21;;;;;;;4.35;3.17;;;10.50;99.90;;;;;;5074523;28;20490;-77
2021/05/27 02:51:48;;;;;;;4.15;3.83;;;10.50;99.90;;;;;;5057002;28;20206;-77
2021/05/27 02:54:16;;;;;;;5.88;4.05;;;10.50;99.90;;;;;;5053115;28;20263;-77
2021/05/27 02:56:44;;;;;;;4.93;4.10;;;10.50;99.90;;;;;;5072956;28;20669;-77
2021/05/27 02:59:14;;;;;;;4.40;3.88;;;10.70;99.90;;;;;;5041964;28;20555;-77
2021/05/27 03:01:42;;;;;;;4.18;3.88;;;10.60;99.90;;;;;;5070175;28;20202;-77
2021/05/27 03:04:10;;;;;;;5.75;3.38;;;10.70;99.90;;;;;;5056435;28;20206;-77
2021/05/27 03:06:37;;;;;;;4.40;3.92;;;10.60;99.90;;;;;;5056629;28;20205;-76
2021/05/27 03:09:05;;;;;;;4.20;3.90;;;10.60;99.90;;;;;;5073522;28;20272;-77
2021/05/27 03:11:32;;;;;;;4.72;4.05;;;10.70;99.90;;;;;;5074529;28;20686;-77
2021/05/27 03:14:00;;;;;;;4.10;3.30;;;10.70;99.90;;;;;;5074146;28;20234;-77
2021/05/27 03:16:38;;;;;;;3.58;3.28;;;10.80;99.90;;;;;;5039830;28;20202;-77
2021/05/27 03:19:05;;;;;;;9.63;4.72;;;10.70;99.90;;;;;;5073851;28;20224;-77
2021/05/27 03:21:33;;;;;;;3.20;3.00;;;10.70;99.90;;;;;;5056400;28;20211;-77
2021/05/27 03:24:00;;;;;;;3.25;2.95;;;10.70;99.90;;;;;;5053798;28;20701;-77
2021/05/27 03:26:27;;;;;;;2.90;2.53;;;10.60;99.90;;;;;;5054336;28;20268;-78
2021/05/27 03:28:55;;;;;;;4.63;3.08;;;10.60;99.90;;;;;;5038588;28;20198;-77
2021/05/27 03:31:23;;;;;;;2.65;2.45;;;10.50;99.90;;;;;;5038758;28;20200;-77
2021/05/27 03:33:54;;;;;;;3.17;2.45;;;10.60;99.90;;;;;;5035966;28;20203;-77
2021/05/27 03:36:21;;;;;;;3.15;2.88;;;10.50;99.90;;;;;;5035920;28;20219;-77
2021/05/27 03:38:50;;;;;;;2.63;2.42;;;10.40;99.90;;;;;;5053172;28;20221;-77
2021/05/27 03:41:18;;;;;;;3.60;2.20;;;10.30;99.90;;;;;;5035861;28;20207;-77
2021/05/27 03:43:46;;;;;;;2.75;2.28;;;10.30;99.90;;;;;;5053592;28;20258;-77
2021/05/27 03:46:15;;;;;;;2.10;2.00;;;10.20;99.90;;;;;;5053411;28;20231;-77
2021/05/27 03:48:42;;;;;;;1.65;1.55;;;10.30;99.90;;;;;;5053124;28;20195;-76
2021/05/27 03:51:10;;;;;;;2.20;2.05;;;10.30;99.90;;;;;;5053558;28;20213;-77
2021/05/27 03:53:38;;;;;;;2.03;1.92;;;10.30;99.90;;;;;;5036564;28;20604;-77
2021/05/27 03:56:08;;;;;;;1.80;1.58;;;10.30;99.90;;;;;;5035804;28;20288;-77
2021/05/27 04:01:36;;;;;;;1.23;1.20;;;10.20;99.90;;;;;;5019213;28;20202;-77
2021/05/27 04:07:10;;;;;;;2.38;1.42;;;10.10;99.90;;;;;;5035417;28;20199;-77
2021/05/27 04:09:38;;;;;;;1.85;1.75;;;10.10;99.90;;;;;;5052578;28;20289;-77
2021/05/27 04:17:39;;;;;;;7.28;2.08;;;10.30;99.90;;;;;;5054836;28;20293;-77
2021/05/27 04:20:09;;;;;;;1.98;1.77;;;10.40;99.90;;;;;;5053525;28;20207;-76
2021/05/27 04:22:36;;;;;;;2.63;1.58;;;10.40;99.90;;;;;;5053102;28;20219;-77
2021/05/27 04:25:03;;;;;;;3.00;1.83;;;10.40;99.90;;;;;;5036045;28;20258;-76
2021/05/27 04:27:30;;;;;;;2.25;2.15;;;10.50;99.90;;;;;;5036075;28;20222;-76
2021/05/27 04:30:12;;;;;;;2.33;2.13;;;10.50;99.90;;;;;;5055075;28;20202;-76
2021/05/27 04:32:55;;;;;;;3.20;2.05;;;10.50;99.90;;;;;;5053038;28;20244;-77
2021/05/27 04:35:24;;;;;;;4.88;1.88;;;10.50;99.90;;;;;;5052534;28;20226;-76
2021/05/27 04:37:51;;;;;;;5.13;2.60;;;10.50;99.90;;;;;;5035230;28;20290;-77
2021/05/27 04:40:19;;;;;;;2.63;1.95;;;10.50;99.90;;;;;;5035212;28;20205;-77
2021/05/27 04:42:46;;;;;;;3.63;2.20;;;10.50;99.90;;;;;;5052857;28;20226;-77
2021/05/27 04:45:14;;;;;;;2.60;1.90;;;10.50;99.90;;;;;;5053059;28;20264;-76
2021/05/27 04:47:41;;;;;;;3.63;2.55;;;10.50;99.90;;;;;;5053829;28;20288;-77
2021/05/27 04:50:10;;;;;;;2.85;2.58;;;10.50;99.90;;;;;;5053638;28;20199;-76
2021/05/27 04:52:37;;;;;;;4.20;2.20;;;10.50;99.90;;;;;;5054434;28;20580;-76
2021/05/27 04:55:06;;;;;;;4.13;2.65;;;10.60;99.90;;;;;;5035333;28;20298;-76
2021/05/27 04:57:32;;;;;;;2.97;2.30;;;10.80;99.90;;;;;;5053115;28;20199;-77
2021/05/27 05:00:00;;;;;;;3.08;2.60;;;10.90;99.90;;;;;;5053385;28;20204;-77
2021/05/27 05:02:28;;;;;;;2.20;2.03;;;11.20;99.90;;;;;;5053212;28;20232;-76
2021/05/27 05:04:55;;;;;;;2.72;2.53;;;11.10;99.90;;;;;;5070837;28;20206;-77
2021/05/27 05:07:22;;;;;;;2.60;2.50;;;11.20;99.90;;;;;;5073674;28;20639;-76
2021/05/27 05:09:48;;;;;;;3.08;2.05;;;11.10;99.90;;;;;;5055235;28;20203;-76
2021/05/27 05:12:15;;;;;;;2.63;2.42;;;11.20;99.90;;;;;;5039178;28;20202;-77
2021/05/27 05:14:42;;;;;;;2.53;1.95;;;11.20;99.90;;;;;;5073756;28;20214;-77
2021/05/27 05:17:09;;;;;;;5.28;2.28;;;11.10;99.90;;;;;;5056474;28;20202;-77
2021/05/27 05:19:36;;;;;;;2.78;1.90;;;11.10;99.90;;;;;;5073774;28;20205;-77
2021/05/27 05:22:02;;;;;;;3.28;2.63;;;11.20;99.90;;;;;;5073829;28;20219;-75
2021/05/27 05:24:29;;;;;;;3.10;2.80;;;11.10;99.90;;;;;;5055687;28;20220;-76
2021/05/27 05:26:56;;;;;;;3.03;1.95;;;11.10;99.90;;;;;;5074089;28;20198;-77
2021/05/27 05:29:22;;;;;;;2.15;2.00;;;11.10;99.90;;;;;;5074140;28;20372;-77
2021/05/27 05:31:50;;;;;;;2.30;2.15;;;11.20;99.90;;;;;;5073992;28;20198;-77
2021/05/27 05:34:17;;;;;;;3.05;2.75;;;11.20;99.90;;;;;;5073875;28;20215;-77
2021/05/27 05:36:44;;;;;;;2.65;2.45;;;11.30;99.90;;;;;;5055865;28;20205;-77
2021/05/27 05:39:10;;;;;;;1.75;1.65;;;11.40;99.90;;;;;;5060105;28;20230;-78
2021/05/27 05:41:38;;;;;;;2.38;2.13;;;11.40;99.90;;;;;;5049418;28;20213;-77
2021/05/27 05:44:05;;;;;;;4.85;2.08;;;11.20;99.90;;;;;;5072311;28;20316;-78
2021/05/27 05:46:31;;;;;;;2.03;1.80;;;11.10;99.90;;;;;;5074555;28;20217;-77
2021/05/27 05:48:58;;;;;;;2.10;2.00;;;11.00;99.90;;;;;;5077548;28;20270;-77
2021/05/27 05:51:26;;;;;;;2.72;1.40;;;11.00;99.90;;;;;;5078583;28;20201;-78
2021/05/27 05:53:52;;;;;;;2.75;1.77;;;10.90;99.90;;;;;;5077373;28;20209;-77
2021/05/27 05:56:19;;;;;;;1.98;1.63;;;11.00;99.90;;;;;;5060272;28;20218;-78
2021/05/27 05:58:45;;;;;;;2.45;1.77;;;11.10;99.90;;;;;;5058304;28;20226;-77
2021/05/27 06:01:13;;;;;;;2.95;1.83;;;11.10;99.90;;;;;;5078757;28;20225;-78
2021/05/27 06:03:40;;;;;;;2.90;2.20;;;11.20;99.90;;;;;;5078655;28;20758;-77
2021/05/27 06:06:09;;;;;;;1.85;1.75;;;11.10;99.90;;;;;;5077609;28;20237;-77
2021/05/27 06:08:49;;;;;;;3.17;2.65;;;11.10;99.90;;;;;;5061233;28;20274;-77
2021/05/27 06:11:16;;;;;;;2.13;2.03;;;11.10;99.90;;;;;;5079387;28;20198;-77
2021/05/27 06:13:42;;;;;;;1.92;1.83;;;11.30;99.90;;;;;;5079694;28;20190;-78
2021/05/27 06:16:09;;;;;;;2.22;1.70;;;11.20;99.90;;;;;;5061061;28;20256;-78
2021/05/27 06:18:35;;;;;;;2.17;1.73;;;11.20;99.90;;;;;;5079291;28;20205;-77
2021/05/27 06:21:23;;;;;;;2.50;2.30;;;11.20;99.90;;;;;;5059167;28;20402;-77
2021/05/27 06:23:52;;;;;;;1.80;1.70;;;11.20;99.90;;;;;;5060459;28;20280;-77
2021/05/27 06:26:18;;;;;;;2.20;2.10;;;11.10;99.90;;;;;;5077380;28;20214;-77
2021/05/27 06:28:45;;;;;;;2.75;2.00;;;11.10;99.90;;;;;;5058169;28;20216;-77
2021/05/27 06:31:12;;;;;;;2.20;2.10;;;11.10;99.90;;;;;;5042434;28;20290;-78
2021/05/27 06:33:39;;;;;;;1.90;1.80;;;11.20;99.90;;;;;;5057912;28;20206;-77
2021/05/27 06:36:07;;;;;;;1.88;1.77;;;11.10;99.90;;;;;;5057186;28;20782;-77
2021/05/27 06:38:34;;;;;;;1.60;1.50;;;11.20;99.90;;;;;;5064760;28;20206;-77
2021/05/27 06:41:02;;;;;;;1.67;1.58;;;11.10;99.90;;;;;;5069100;28;20203;-77
2021/05/27 06:43:29;;;;;;;1.40;1.30;;;11.10;99.90;;;;;;5039892;28;20411;-78
2021/05/27 06:45:57;;;;;;;1.40;1.30;;;11.10;99.90;;;;;;5058303;28;20280;-77
2021/05/27 06:48:23;;;;;;;1.38;1.27;;;11.10;99.90;;;;;;5061078;28;20686;-77
2021/05/27 06:50:50;;;;;;;1.00;1.00;;;11.00;99.90;;;;;;5057283;28;20591;-77
2021/05/27 06:53:17;;;;;;;1.30;1.15;;;11.10;99.90;;;;;;5061518;28;20628;-77
2021/05/27 06:55:45;;;;;;;1.45;1.35;;;11.00;99.90;;;;;;5076484;28;20222;-77
2021/05/27 06:58:13;;;;;;;1.50;1.40;;;11.10;99.90;;;;;;5074612;28;20256;-77
2021/05/27 07:00:41;;;;;;;1.42;1.33;;;11.10;99.90;;;;;;5070400;28;20244;-76
2021/05/27 07:03:08;;;;;;;2.38;1.55;;;11.10;99.90;;;;;;5072539;28;20214;-76
2021/05/27 07:05:35;;;;;;;2.13;1.42;;;11.10;99.90;;;;;;5049591;28;20230;-76
2021/05/27 07:08:04;;;;;;;3.28;1.70;;;11.10;99.90;;;;;;5043958;28;20260;-76
2021/05/27 07:10:31;;;;;;;2.03;1.92;;;11.20;99.90;;;;;;5038664;28;20252;-76
2021/05/27 07:12:59;;;;;;;1.77;1.67;;;11.30;99.90;;;;;;5042555;28;20221;-77
2021/05/27 07:15:27;;;;;;;1.92;1.30;;;11.50;99.90;;;;;;5053857;28;20230;-76
2021/05/27 07:17:55;;;;;;;1.55;1.45;;;11.60;99.90;;;;;;5040452;28;20689;-77
2021/05/27 07:20:23;;;;;;;1.52;1.42;;;11.60;99.90;;;;;;5069324;28;20232;-77
2021/05/27 07:22:51;;;;;;;1.08;1.08;;;11.70;99.90;;;;;;5066253;28;20203;-77
2021/05/27 07:25:20;;;;;;;1.23;1.10;;;11.70;99.90;;;;;;5074679;28;20222;-77
2021/05/27 07:27:48;;;;;;;1.80;1.27;;;11.90;99.90;;;;;;5073250;28;20594;-76
2021/05/27 07:30:16;;;;;;;1.05;1.05;;;12.10;99.90;;;;;;5053203;28;20224;-77
2021/05/27 07:32:43;;;;;;;2.15;1.25;;;12.30;99.90;;;;;;5053999;28;20606;-78
2021/05/27 07:35:10;;;;;;;0.90;0.90;;;12.50;99.90;;;;;;5067868;28;20709;-77
2021/05/27 07:37:37;;;;;;;1.05;1.05;;;12.40;99.90;;;;;;5060176;28;20774;-78
2021/05/27 07:40:05;;;;;;;1.00;1.00;;;12.30;99.90;;;;;;5063357;28;20207;-77
2021/05/27 07:42:31;;;;;;;0.98;0.98;;;11.80;99.90;;;;;;5066368;28;20259;-78
2021/05/27 07:44:58;;;;;;;1.33;0.98;;;11.80;99.90;;;;;;5067544;28;20238;-78
2021/05/27 07:47:24;;;;;;;0.63;0.63;;;11.60;99.90;;;;;;5064827;28;20198;-77
2021/05/27 07:49:52;;;;;;;1.20;1.00;;;11.60;99.90;;;;;;5065703;28;20285;-78
2021/05/27 07:52:18;;;;;;;0.80;0.80;;;11.80;99.90;;;;;;5057414;28;20199;-77
2021/05/27 07:54:47;;;;;;;1.30;0.90;;;11.70;99.90;;;;;;5064712;28;20304;-78
2021/05/27 07:57:13;;;;;;;0.80;0.80;;;11.60;99.90;;;;;;5067465;28;20207;-78
2021/05/27 07:59:40;;;;;;;0.82;0.82;;;11.70;99.90;;;;;;5071393;28;20725;-78
2021/05/27 08:02:07;;;;;;;1.02;0.65;;;11.60;99.90;;;;;;5065635;28;20187;-78
2021/05/27 08:04:34;;;;;;;0.85;0.85;;;11.70;99.90;;;;;;5070757;28;20218;-78
2021/05/27 08:07:01;;;;;;;0.98;0.85;;;11.80;99.90;;;;;;5079238;28;20224;-78
2021/05/27 08:09:28;;;;;;;1.27;0.90;;;11.80;99.90;;;;;;5056504;28;20243;-78
2021/05/27 08:11:54;;;;;;;0.85;0.80;;;11.70;99.90;;;;;;5079637;28;20198;-78
2021/05/27 08:14:21;;;;;;;1.15;1.15;;;11.60;99.90;;;;;;5079075;28;20202;-78
2021/05/27 08:16:48;;;;;;;1.48;1.10;;;11.60;99.90;;;;;;5059784;28;20194;-78
2021/05/27 08:19:14;;;;;;;0.70;0.70;;;11.50;99.90;;;;;;5060044;28;20283;-78
2021/05/27 08:21:41;;;;;;;0.82;0.80;;;11.70;99.90;;;;;;5048879;28;20225;-78
2021/05/27 08:24:09;;;;;;;1.40;1.00;;;11.90;99.90;;;;;;5072672;28;20222;-78
2021/05/27 08:26:35;;;;;;;1.20;1.10;;;12.00;99.90;;;;;;5078598;28;20316;-77
2021/05/27 08:29:03;;;;;;;1.20;1.20;;;12.00;99.90;;;;;;5077838;28;20202;-77
2021/05/27 08:31:30;;;;;;;1.00;1.00;;;11.90;99.90;;;;;;5079528;28;20259;-78
2021/05/27 08:33:57;;;;;;;1.20;1.17;;;12.00;99.90;;;;;;5057103;28;20223;-78
2021/05/27 08:36:24;;;;;;;1.30;1.20;;;11.90;99.90;;;;;;5065930;28;20226;-78
2021/05/27 08:38:51;;;;;;;0.95;0.93;;;11.90;99.90;;;;;;5075239;28;20419;-77
2021/05/27 08:41:20;;;;;;;1.10;1.10;;;12.00;99.90;;;;;;5062120;28;20190;-77
2021/05/27 08:43:48;;;;;;;1.23;1.13;;;12.00;99.90;;;;;;5051484;28;20224;-78
2021/05/27 08:46:16;;;;;;;1.10;1.08;;;11.80;99.90;;;;;;5041576;28;20229;-78
2021/05/27 08:48:42;;;;;;;0.73;0.73;;;11.90;99.90;;;;;;5059558;28;20602;-78
2021/05/27 08:51:10;;;;;;;1.17;1.08;;;11.80;99.90;;;;;;5056313;28;20242;-78
2021/05/27 08:53:36;;;;;;;0.88;0.88;;;11.60;99.90;;;;;;5070601;28;20198;-78
2021/05/27 08:56:04;;;;;;;1.50;1.40;;;11.60;99.90;;;;;;5071439;28;20257;-78
2021/05/27 08:58:31;;;;;;;1.38;1.27;;;11.70;99.90;;;;;;5078417;28;20822;-77
2021/05/27 09:00:58;;;;;;;1.02;1.02;;;11.70;99.90;;;;;;5073070;28;20198;-78
2021/05/27 09:03:38;;;;;;;1.20;1.00;;;11.50;99.90;;;;;;5058521;28;20223;-78
2021/05/27 09:06:09;;;;;;;1.27;1.10;;;11.60;99.90;;;;;;5040261;28;20704;-78
2021/05/27 09:08:38;;;;;;;1.23;1.13;;;11.70;99.90;;;;;;5059336;28;20195;-77
2021/05/27 09:11:06;;;;;;;1.60;1.50;;;11.60;99.90;;;;;;5062404;28;20621;-78
2021/05/27 09:13:35;;;;;;;1.42;1.40;;;11.60;99.90;;;;;;5058520;28;20220;-78
2021/05/27 09:16:09;;;;;;;1.70;1.20;;;11.70;99.90;;;;;;5062172;28;20285;-78
2021/05/27 09:18:38;;;;;;;1.02;1.02;;;11.70;99.90;;;;;;5066236;28;20202;-78
2021/05/27 09:21:07;;;;;;;1.20;1.10;;;11.70;99.90;;;;;;5054473;28;20285;-78
2021/05/27 09:23:35;;;;;;;1.52;1.45;;;11.70;99.90;;;;;;5069656;28;20245;-78
2021/05/27 09:26:06;;;;;;;2.28;1.88;;;11.70;99.90;;;;;;5050883;28;20253;-79
2021/05/27 09:28:35;;;;;;;1.20;1.10;;;11.70;99.90;;;;;;5044477;28;20196;-79
2021/05/27 09:31:07;;;;;;;4.78;1.33;;;11.50;99.90;;;;;;5048597;28;20203;-80
2021/05/27 09:33:39;;;;;;;1.80;1.45;;;11.60;99.90;;;;;;5032287;28;20658;-81
2021/05/27 09:36:11;;;;;;;1.30;1.20;;;11.60;99.90;;;;;;5045342;28;20594;-80
2021/05/27 09:38:41;;;;;;;1.88;1.77;;;11.70;99.90;;;;;;5042700;28;20235;-80
2021/05/27 09:41:18;;;;;;;1.90;1.80;;;11.70;99.90;;;;;;5047277;28;20208;-80
2021/05/27 09:43:50;;;;;;;3.80;2.05;;;11.60;99.90;;;;;;5047164;28;20244;-80
2021/05/27 09:46:17;;;;;;;1.88;1.75;;;11.50;99.90;;;;;;5037066;28;20251;-79
2021/05/27 09:48:44;;;;;;;1.75;1.65;;;11.50;99.90;;;;;;5027351;28;20295;-80
2021/05/27 09:51:11;;;;;;;2.33;1.88;;;11.40;99.90;;;;;;5036806;28;20267;-79
2021/05/27 09:53:38;;;;;;;1.73;1.63;;;11.50;99.90;;;;;;5045952;28;20202;-79
2021/05/27 09:56:06;;;;;;;1.60;1.50;;;11.40;99.90;;;;;;5045222;28;20212;-80
2021/05/27 09:58:33;;;;;;;2.28;2.08;;;11.50;99.90;;;;;;5044783;28;20759;-80
2021/05/27 10:01:08;;;;;;;4.05;2.13;;;11.40;99.90;;;;;;5041357;28;20203;-80
2021/05/27 10:03:37;;;;;;;1.92;1.83;;;11.40;99.90;;;;;;5045356;28;20212;-81
2021/05/27 10:06:06;;;;;;;2.03;1.90;;;11.40;99.90;;;;;;5042971;28;20283;-81
2021/05/27 10:08:53;;;;;;;3.45;2.55;;;11.60;99.90;;;;;;5044365;28;20545;-80
2021/05/27 10:11:21;;;;;;;2.05;1.88;;;11.70;99.90;;;;;;5043139;28;20212;-80
2021/05/27 10:13:51;;;;;;;2.00;1.90;;;11.50;99.90;;;;;;5044371;28;20265;-81
2021/05/27 10:16:20;;;;;;;3.35;2.47;;;11.50;99.90;;;;;;5043644;28;20223;-81
2021/05/27 10:18:48;;;;;;;2.30;2.17;;;11.30;99.90;;;;;;5044567;28;20200;-81
2021/05/27 10:21:15;;;;;;;3.08;2.03;;;11.50;99.90;;;;;;5044515;28;20203;-81
2021/05/27 10:23:42;;;;;;;2.45;2.35;;;11.50;99.90;;;;;;5044902;28;20555;-80
2021/05/27 10:26:09;;;;;;;2.25;2.15;;;11.60;99.90;;;;;;5046449;28;20223;-81
2021/05/27 10:28:37;;;;;;;3.15;2.95;;;11.50;99.90;;;;;;5046239;28;20219;-81
2021/05/27 10:31:05;;;;;;;3.05;2.42;;;11.50;99.90;;;;;;5030854;28;20208;-81
2021/05/27 10:33:39;;;;;;;2.58;2.38;;;11.40;99.90;;;;;;5041305;28;20215;-81
2021/05/27 10:36:08;;;;;;;1.75;1.65;;;11.60;99.90;;;;;;5049826;28;20296;-81
2021/05/27 10:38:51;;;;;;;2.50;2.30;;;11.50;99.90;;;;;;5048823;28;20196;-80
2021/05/27 10:41:21;;;;;;;2.10;1.98;;;11.40;99.90;;;;;;5044074;28;20199;-81
2021/05/27 10:44:16;;;;;;;2.05;1.95;;;11.30;99.90;;;;;;5047150;28;20245;-81
2021/05/27 10:47:16;;;;;;;2.67;2.47;;;11.30;99.90;;;;;;5029155;28;20199;-81
2021/05/27 10:49:58;;;;;;;2.67;2.17;;;11.30;99.90;;;;;;5033792;28;20210;-80
2021/05/27 10:52:36;;;;;;;2.75;2.55;;;11.50;99.90;;;;;;5050207;28;20213;-81
2021/05/27 10:55:06;;;;;;;4.00;2.17;;;11.70;99.90;;;;;;5049009;28;20283;-81
2021/05/27 10:57:49;;;;;;;2.65;2.30;;;12.00;99.90;;;;;;5033168;28;20208;-81
2021/05/27 11:00:50;;;;;;;3.13;2.92;;;12.50;99.90;;;;;;5044214;28;20206;-81
2021/05/27 11:03:41;;;;;;;3.22;2.80;;;12.80;99.90;;;;;;5008822;28;20226;-81
2021/05/27 11:06:21;;;;;;;2.13;2.03;;;13.10;99.90;;;;;;5047465;28;20228;-80
2021/05/27 11:08:48;;;;;;;1.65;1.55;;;13.20;99.90;;;;;;5049720;28;20207;-82
2021/05/27 11:11:34;;;;;;;2.60;2.25;;;13.20;99.90;;;;;;5052324;28;20219;-80
2021/05/27 11:14:17;;;;;;;3.10;1.80;;;13.10;99.90;;;;;;5050777;28;20202;-81
2021/05/27 11:17:18;;;;;;;2.42;1.73;;;13.00;99.90;;;;;;5043438;28;20208;-81
2021/05/27 11:19:51;;;;;;;2.45;1.70;;;13.10;99.90;;;;;;5019966;28;20191;-80
2021/05/27 11:22:44;;;;;;;1.50;1.40;;;13.20;99.90;;;;;;5052608;28;20215;-80
2021/05/27 11:25:34;;;;;;;2.08;1.88;;;13.30;99.90;;;;;;5045094;28;20215;-80
2021/05/27 11:28:28;;;;;;;2.83;1.60;;;13.10;99.90;;;;;;5035079;28;20667;-78
2021/05/27 11:30:57;;;;;;;2.65;2.10;;;13.10;99.90;;;;;;5039941;28;20192;-80
2021/05/27 11:33:33;;;;;;;3.28;1.52;;;13.20;99.90;;;;;;5046647;28;20268;-80
2021/05/27 11:36:03;;;;;;;1.58;1.35;;;13.20;99.90;;;;;;5048984;28;20242;-80
2021/05/27 11:38:32;;;;;;;1.33;1.30;;;13.10;99.90;;;;;;5048551;28;20204;-80
2021/05/27 11:41:01;;;;;;;1.50;1.40;;;13.40;99.90;;;;;;5048804;28;20463;-80
2021/05/27 11:43:32;;;;;;;1.80;1.70;;;13.50;99.90;;;;;;5050235;28;20230;-81
2021/05/27 11:46:01;;;;;;;3.40;2.05;;;13.90;99.90;;;;;;5049943;28;20216;-80
2021/05/27 11:48:30;;;;;;;3.53;1.85;;;14.20;99.90;;;;;;5050429;28;20200;-80
2021/05/27 11:51:03;;;;;;;1.38;1.30;;;13.90;99.90;;;;;;5042636;28;20218;-81
2021/05/27 11:53:49;;;;;;;1.33;1.23;;;13.90;99.90;;;;;;5044114;28;20196;-80
2021/05/27 11:56:36;;;;;;;1.42;1.33;;;13.80;99.90;;;;;;5043798;28;20220;-81
2021/05/27 11:59:09;;;;;;;1.58;1.48;;;14.00;99.90;;;;;;5049287;28;20208;-82
2021/05/27 12:01:36;;;;;;;4.90;2.10;;;13.90;99.90;;;;;;5049686;28;20224;-80
2021/05/27 12:04:05;;;;;;;1.70;1.60;;;13.70;99.90;;;;;;5046962;28;20246;-79
2021/05/27 12:07:03;;;;;;;1.50;1.30;;;14.00;99.90;;;;;;5045042;28;20220;-80
2021/05/27 12:09:33;;;;;;;1.73;1.30;;;14.00;99.90;;;;;;5043734;28;20694;-80
2021/05/27 12:12:14;;;;;;;2.38;1.85;;;14.20;99.90;;;;;;5050320;28;20196;-80
2021/05/27 12:14:45;;;;;;;1.67;1.58;;;14.50;99.90;;;;;;5050822;28;20200;-80
2021/05/27 12:17:23;;;;;;;2.13;2.00;;;14.60;99.90;;;;;;5057040;28;20184;-79
2021/05/27 12:19:51;;;;;;;2.53;2.10;;;14.70;99.90;;;;;;5053117;28;20190;-80
2021/05/27 12:22:18;;;;;;;3.55;1.58;;;15.10;99.90;;;;;;5051510;28;20219;-80
2021/05/27 12:25:10;;;;;;;1.60;1.50;;;15.50;99.90;;;;;;5050187;28;20239;-81
2021/05/27 12:27:42;;;;;;;1.95;1.20;;;15.70;99.90;;;;;;5040191;28;20208;-81
2021/05/27 12:30:10;;;;;;;2.08;1.65;;;15.80;99.90;;;;;;5048498;28;20215;-80
2021/05/27 12:32:38;;;;;;;1.92;1.25;;;15.80;99.90;;;;;;5049229;28;20188;-80
2021/05/27 12:35:08;;;;;;;1.70;1.60;;;15.50;99.90;;;;;;5050248;28;20216;-80
2021/05/27 12:37:45;;;;;;;1.70;1.60;;;15.30;99.90;;;;;;5049307;28;20227;-80
2021/05/27 12:40:19;;;;;;;1.48;1.38;;;15.10;99.90;;;;;;5047275;28;20196;-81
2021/05/27 12:42:46;;;;;;;1.25;1.15;;;14.90;99.90;;;;;;5050042;28;20330;-80
2021/05/27 12:45:31;;;;;;;4.57;1.50;;;14.80;99.90;;;;;;5050352;28;20239;-80
2021/05/27 12:48:06;;;;;;;3.50;1.52;;;14.70;99.90;;;;;;5041827;28;20234;-80
2021/05/27 12:50:33;;;;;;;2.78;1.20;;;14.70;99.90;;;;;;5047733;28;20199;-80
2021/05/27 12:53:03;;;;;;;1.77;1.58;;;14.70;99.90;;;;;;5050335;28;20188;-80
2021/05/27 12:55:34;;;;;;;2.00;1.80;;;15.40;99.90;;;;;;5048845;28;20224;-79
2021/05/27 12:58:03;;;;;;;1.60;1.50;;;15.70;99.90;;;;;;5055063;28;20203;-81
2021/05/27 13:00:45;;;;;;;1.60;1.50;;;15.70;99.90;;;;;;5034062;28;20199;-81
2021/05/27 13:03:12;;;;;;;3.78;2.08;;;15.50;99.90;;;;;;5044611;28;20235;-80
2021/05/27 13:05:39;;;;;;;3.03;1.70;;;15.50;99.90;;;;;;5051518;28;20211;-80
2021/05/27 13:08:06;;;;;;;1.60;1.50;;;15.50;99.90;;;;;;5049397;28;20227;-80
2021/05/27 13:10:35;;;;;;;2.95;1.98;;;15.70;99.90;;;;;;5049031;28;20196;-80
2021/05/27 13:13:03;;;;;;;1.50;1.40;;;16.20;99.90;;;;;;5048639;28;20208;-80
2021/05/27 13:15:30;;;;;;;2.30;1.50;;;16.20;99.90;;;;;;5049720;28;20784;-81